Time;durP1;ratioP1;P1;durP2;ratioP2;P2;SDS_P1;SDS_P2;PMS_P1;PMS_P2;Temp;Humidity;BMP_temperature;BMP_pressure;BME280_temperature;BME280_humidity;BME280_pressure;Samples;Min_cycle;Max_cycle;Signal;HPM_P1;HPM_P2
2022/04/06 00:01:10;;;;;;;0.25;0.25;;;7.50;1.00;;;;;;5054008;28;20029;-69
2022/04/06 00:03:36;;;;;;;0.15;0.15;;;7.50;1.00;;;;;;5054231;28;20110;-69
2022/04/06 00:06:01;;;;;;;0.10;0.10;;;7.50;1.00;;;;;;5054418;28;20454;-69
2022/04/06 00:08:28;;;;;;;0.28;0.28;;;7.40;1.00;;;;;;5054366;28;20056;-69
2022/04/06 00:10:54;;;;;;;0.20;0.20;;;7.40;1.00;;;;;;5054217;28;20064;-69
2022/04/06 00:13:19;;;;;;;0.20;0.20;;;7.40;1.00;;;;;;5055153;28;20069;-69
2022/04/06 00:15:45;;;;;;;0.10;0.10;;;7.40;1.00;;;;;;5054391;28;20037;-69
2022/04/06 00:18:11;;;;;;;0.10;0.10;;;7.40;1.00;;;;;;5055158;28;20479;-69
2022/04/06 00:20:37;;;;;;;0.10;0.10;;;7.40;1.00;;;;;;5054497;28;20499;-69
2022/04/06 00:23:03;;;;;;;0.50;0.50;;;7.40;1.00;;;;;;5054803;28;20364;-69
2022/04/06 00:25:28;;;;;;;0.15;0.15;;;7.40;1.00;;;;;;5054174;28;20487;-69
2022/04/06 00:27:54;;;;;;;0.52;0.52;;;7.30;1.00;;;;;;5057108;28;20043;-69
2022/04/06 00:30:20;;;;;;;0.20;0.20;;;7.20;1.00;;;;;;5058578;28;20108;-69
2022/04/06 00:32:46;;;;;;;0.10;0.10;;;7.30;1.00;;;;;;5058681;28;20045;-69
2022/04/06 00:35:32;;;;;;;0.30;0.30;;;7.20;1.00;;;;;;5058049;28;20048;-69
2022/04/06 00:38:03;;;;;;;0.13;0.13;;;7.20;1.00;;;;;;5058923;28;20159;-69
2022/04/06 00:40:32;;;;;;;0.88;0.50;;;7.20;1.00;;;;;;5057734;28;20068;-69
2022/04/06 00:42:58;;;;;;;0.15;0.15;;;7.30;1.00;;;;;;5058247;28;20037;-69
2022/04/06 00:45:24;;;;;;;0.13;0.13;;;7.30;1.00;;;;;;5058152;28;20491;-69
2022/04/06 00:47:52;;;;;;;0.22;0.22;;;7.20;1.00;;;;;;5057891;28;20040;-69
2022/04/06 00:50:18;;;;;;;0.32;0.32;;;7.10;1.00;;;;;;5058000;28;20522;-69
2022/04/06 00:52:44;;;;;;;0.25;0.25;;;7.10;1.00;;;;;;5057770;28;20036;-69
2022/04/06 00:55:12;;;;;;;0.50;0.50;;;7.10;1.00;;;;;;5057784;28;20045;-69
2022/04/06 00:57:39;;;;;;;0.28;0.25;;;7.10;1.00;;;;;;5057943;28;20040;-69
2022/04/06 01:00:07;;;;;;;0.20;0.20;;;7.10;1.00;;;;;;5058063;28;20047;-69
2022/04/06 01:02:33;;;;;;;0.15;0.15;;;7.10;1.00;;;;;;5057349;28;20588;-69
2022/04/06 01:04:59;;;;;;;1.25;0.20;;;7.10;1.00;;;;;;5057435;28;20036;-69
2022/04/06 01:07:25;;;;;;;0.47;0.47;;;7.00;1.00;;;;;;5057469;28;20041;-69
2022/04/06 01:09:51;;;;;;;0.10;0.10;;;7.00;1.00;;;;;;5057877;28;20579;-69
2022/04/06 01:12:19;;;;;;;0.20;0.20;;;7.00;1.00;;;;;;5056129;28;20395;-69
2022/04/06 01:14:46;;;;;;;0.10;0.10;;;6.90;1.00;;;;;;5056820;28;20493;-69
2022/04/06 01:17:12;;;;;;;0.22;0.22;;;7.00;1.00;;;;;;5057019;28;20531;-69
2022/04/06 01:19:40;;;;;;;0.30;0.30;;;7.00;1.00;;;;;;5057423;28;20029;-69
2022/04/06 01:22:09;;;;;;;4.40;1.52;;;7.00;1.00;;;;;;5056927;28;20435;-69
2022/04/06 01:24:35;;;;;;;0.08;0.08;;;6.90;1.00;;;;;;5057448;28;20142;-69
2022/04/06 01:27:01;;;;;;;0.85;0.85;;;6.90;1.00;;;;;;5057463;28;20068;-69
2022/04/06 01:29:27;;;;;;;0.10;0.10;;;7.10;1.00;;;;;;5057195;28;20040;-69
2022/04/06 01:31:53;;;;;;;0.20;0.20;;;7.00;1.00;;;;;;5057055;28;20036;-69
2022/04/06 01:34:19;;;;;;;0.20;0.20;;;7.00;1.00;;;;;;5056625;28;20087;-69
2022/04/06 01:36:45;;;;;;;0.13;0.13;;;7.00;1.00;;;;;;5056400;28;20048;-69
2022/04/06 01:39:11;;;;;;;0.03;0.03;;;6.80;1.00;;;;;;5054910;28;20061;-69
2022/04/06 01:41:38;;;;;;;0.13;0.13;;;6.70;1.00;;;;;;5055740;28;20093;-69
2022/04/06 01:44:05;;;;;;;0.13;0.13;;;6.50;1.00;;;;;;5055046;28;20037;-69
2022/04/06 01:46:32;;;;;;;0.10;0.10;;;6.40;1.00;;;;;;5056499;28;20041;-69
2022/04/06 01:54:28;;;;;;;0.00;0.00;;;6.40;1.00;;;;;;5056234;28;20565;-69
2022/04/06 01:56:54;;;;;;;0.10;0.10;;;6.40;1.00;;;;;;5056575;28;20044;-69
2022/04/06 01:59:20;;;;;;;1.40;0.68;;;6.30;1.00;;;;;;5056299;28;20064;-69
2022/04/06 02:01:51;;;;;;;0.10;0.10;;;6.20;1.00;;;;;;5056497;28;20080;-69
2022/04/06 02:04:17;;;;;;;0.10;0.10;;;6.10;1.00;;;;;;5056732;28;20140;-69
2022/04/06 02:06:43;;;;;;;0.30;0.20;;;6.10;1.00;;;;;;5056440;28;20123;-69
2022/04/06 02:09:09;;;;;;;0.20;0.20;;;6.20;1.00;;;;;;5057440;28;20412;-69
2022/04/06 02:11:39;;;;;;;0.10;0.10;;;6.10;1.00;;;;;;5056619;28;20502;-69
2022/04/06 02:14:05;;;;;;;0.10;0.10;;;6.10;1.00;;;;;;5056632;28;20098;-69
2022/04/06 02:16:32;;;;;;;0.43;0.30;;;6.10;1.00;;;;;;5056212;28;20052;-69
2022/04/06 02:18:58;;;;;;;0.63;0.63;;;6.10;1.00;;;;;;5056244;28;20045;-69
2022/04/06 02:21:24;;;;;;;0.20;0.20;;;6.00;1.00;;;;;;5056424;28;20037;-69
2022/04/06 02:23:50;;;;;;;1.10;0.65;;;6.00;1.00;;;;;;5056394;28;20037;-69
2022/04/06 02:26:16;;;;;;;0.10;0.10;;;6.00;1.00;;;;;;5056015;28;20124;-69
2022/04/06 02:28:42;;;;;;;0.20;0.20;;;6.10;1.00;;;;;;5056017;28;20075;-69
2022/04/06 02:31:07;;;;;;;0.30;0.30;;;6.00;1.00;;;;;;5055829;28;20488;-69
2022/04/06 02:33:33;;;;;;;0.30;0.30;;;6.00;1.00;;;;;;5056471;28;20047;-69
2022/04/06 02:35:59;;;;;;;0.10;0.10;;;6.00;1.00;;;;;;5056079;28;20068;-69
2022/04/06 02:38:25;;;;;;;0.10;0.10;;;5.90;1.00;;;;;;5055797;28;20127;-69
2022/04/06 02:40:51;;;;;;;0.10;0.10;;;5.90;1.00;;;;;;5056225;28;20098;-69
2022/04/06 02:43:17;;;;;;;0.35;0.35;;;5.80;1.00;;;;;;5055981;28;20132;-69
2022/04/06 02:45:43;;;;;;;0.10;0.10;;;6.10;1.00;;;;;;5055762;28;20068;-69
2022/04/06 02:48:09;;;;;;;0.55;0.52;;;6.00;1.00;;;;;;5055614;28;20045;-69
2022/04/06 02:50:35;;;;;;;0.10;0.10;;;5.90;1.00;;;;;;5055488;28;20079;-69
2022/04/06 02:53:01;;;;;;;0.20;0.20;;;5.80;1.00;;;;;;5055809;28;20041;-69
2022/04/06 02:55:27;;;;;;;0.10;0.10;;;5.80;1.00;;;;;;5055853;28;20048;-69
2022/04/06 02:57:53;;;;;;;0.20;0.20;;;5.90;1.00;;;;;;5055971;28;20041;-69
2022/04/06 03:00:19;;;;;;;0.03;0.03;;;5.90;1.00;;;;;;5055815;28;20041;-69
2022/04/06 03:02:46;;;;;;;0.20;0.20;;;5.90;1.00;;;;;;5055902;28;20076;-69
2022/04/06 03:05:12;;;;;;;0.10;0.10;;;6.00;1.00;;;;;;5055547;28;20112;-69
2022/04/06 03:07:41;;;;;;;0.40;0.40;;;6.10;1.00;;;;;;5055215;28;20427;-69
2022/04/06 03:10:08;;;;;;;0.15;0.15;;;6.10;1.00;;;;;;5055608;28;20051;-69
2022/04/06 03:12:34;;;;;;;0.10;0.10;;;6.00;1.00;;;;;;5055158;28;20041;-69
2022/04/06 03:15:00;;;;;;;0.10;0.10;;;6.10;1.00;;;;;;5055313;28;20041;-69
2022/04/06 03:17:26;;;;;;;0.17;0.17;;;6.30;1.00;;;;;;5055082;28;20040;-69
2022/04/06 03:19:51;;;;;;;0.55;0.55;;;6.30;1.00;;;;;;5055137;28;20037;-69
2022/04/06 03:22:17;;;;;;;0.10;0.10;;;6.30;1.00;;;;;;5055314;28;20073;-69
2022/04/06 03:24:44;;;;;;;0.05;0.05;;;6.30;1.00;;;;;;5055410;28;20040;-69
2022/04/06 03:27:10;;;;;;;0.10;0.10;;;6.30;1.00;;;;;;5055206;28;20052;-69
2022/04/06 03:29:36;;;;;;;0.10;0.10;;;6.30;1.00;;;;;;5055265;28;20041;-69
2022/04/06 03:32:02;;;;;;;0.25;0.25;;;6.40;1.00;;;;;;5055074;28;20095;-69
2022/04/06 03:34:28;;;;;;;0.00;0.00;;;6.50;1.00;;;;;;5054699;28;20047;-69
2022/04/06 03:36:54;;;;;;;0.25;0.25;;;6.50;1.00;;;;;;5055045;28;20480;-69
2022/04/06 03:39:19;;;;;;;0.10;0.10;;;6.50;1.00;;;;;;5055305;28;20045;-69
2022/04/06 03:41:45;;;;;;;0.17;0.17;;;6.60;1.00;;;;;;5055003;28;20082;-69
2022/04/06 03:44:11;;;;;;;0.10;0.10;;;6.70;1.00;;;;;;5054518;28;20037;-69
2022/04/06 03:46:37;;;;;;;0.00;0.00;;;6.70;1.00;;;;;;5054944;28;20041;-69
2022/04/06 03:49:03;;;;;;;0.05;0.05;;;6.70;1.00;;;;;;5055441;28;20037;-69
2022/04/06 03:51:29;;;;;;;0.65;0.50;;;6.80;1.00;;;;;;5055062;28;20037;-69
2022/04/06 03:53:55;;;;;;;0.15;0.15;;;6.80;1.00;;;;;;5054979;28;20368;-69
2022/04/06 03:56:21;;;;;;;0.10;0.10;;;6.90;1.00;;;;;;5054133;28;20048;-69
2022/04/06 03:58:47;;;;;;;0.10;0.10;;;6.90;1.00;;;;;;5061805;28;20180;-69
2022/04/06 04:01:13;;;;;;;0.10;0.10;;;7.00;1.00;;;;;;5073743;28;20102;-69
2022/04/06 04:03:38;;;;;;;0.10;0.10;;;7.10;1.00;;;;;;5074112;28;20483;-69
2022/04/06 04:06:04;;;;;;;0.20;0.20;;;7.00;1.00;;;;;;5073685;28;20491;-69
2022/04/06 04:08:30;;;;;;;0.00;0.00;;;7.10;1.00;;;;;;5062647;28;20043;-70
2022/04/06 04:10:56;;;;;;;0.10;0.10;;;7.20;1.00;;;;;;5066341;28;20437;-69
2022/04/06 04:13:22;;;;;;;0.22;0.22;;;7.20;1.00;;;;;;5069801;28;20540;-69
2022/04/06 04:15:47;;;;;;;0.35;0.35;;;7.10;1.00;;;;;;5059263;28;20045;-69
2022/04/06 04:18:13;;;;;;;0.10;0.10;;;7.20;1.00;;;;;;5063574;28;20118;-70
2022/04/06 04:20:41;;;;;;;0.10;0.10;;;7.20;1.00;;;;;;5062022;28;20033;-69
2022/04/06 04:23:07;;;;;;;0.10;0.10;;;7.20;1.00;;;;;;5071892;28;20529;-69
2022/04/06 04:25:33;;;;;;;0.03;0.03;;;7.20;1.00;;;;;;5073360;28;20479;-70
2022/04/06 04:28:00;;;;;;;0.32;0.32;;;7.20;1.00;;;;;;5057058;28;20045;-69
2022/04/06 04:30:25;;;;;;;0.20;0.20;;;7.30;1.00;;;;;;5061785;28;20128;-70
2022/04/06 04:32:51;;;;;;;0.43;0.38;;;7.30;1.00;;;;;;5058802;28;20128;-73
2022/04/06 04:35:17;;;;;;;0.20;0.20;;;7.40;1.00;;;;;;5053111;28;20071;-73
2022/04/06 04:37:43;;;;;;;0.15;0.15;;;7.50;1.00;;;;;;5064513;28;20052;-69
2022/04/06 04:40:09;;;;;;;0.30;0.30;;;7.50;1.00;;;;;;5073150;28;20036;-71
2022/04/06 04:42:35;;;;;;;0.10;0.10;;;7.80;1.00;;;;;;5073326;28;20064;-72
2022/04/06 04:45:02;;;;;;;0.10;0.10;;;7.80;1.00;;;;;;5073233;28;20045;-72
2022/04/06 04:47:30;;;;;;;0.10;0.10;;;7.80;1.00;;;;;;5073298;28;20044;-72
2022/04/06 04:49:59;;;;;;;0.10;0.10;;;7.80;1.00;;;;;;5072808;28;20036;-72
2022/04/06 04:52:25;;;;;;;0.35;0.25;;;7.70;1.00;;;;;;5071214;28;20052;-72
2022/04/06 04:54:51;;;;;;;0.10;0.10;;;7.70;1.00;;;;;;5070856;28;20036;-71
2022/04/06 04:57:17;;;;;;;0.38;0.38;;;7.80;1.00;;;;;;5071469;28;20041;-72
2022/04/06 04:59:42;;;;;;;0.10;0.10;;;7.70;1.00;;;;;;5071583;28;20066;-72
2022/04/06 05:02:08;;;;;;;0.47;0.47;;;7.60;1.00;;;;;;5024961;28;1322996;-72
2022/04/06 05:04:34;;;;;;;0.10;0.10;;;7.50;1.00;;;;;;5072304;28;20041;-72
2022/04/06 05:07:00;;;;;;;0.10;0.10;;;7.50;1.00;;;;;;5073655;28;20044;-72
2022/04/06 05:09:26;;;;;;;0.10;0.10;;;7.50;1.00;;;;;;5073565;28;20043;-71
2022/04/06 05:11:52;;;;;;;0.10;0.10;;;7.40;1.00;;;;;;5074369;28;20032;-72
2022/04/06 05:14:18;;;;;;;0.10;0.10;;;7.30;1.00;;;;;;5076548;28;20036;-71
2022/04/06 05:16:44;;;;;;;0.10;0.10;;;7.10;1.00;;;;;;5077599;28;20041;-72
2022/04/06 05:19:09;;;;;;;0.10;0.10;;;7.10;1.00;;;;;;5076987;28;20051;-72
2022/04/06 05:21:35;;;;;;;0.30;0.30;;;7.10;1.00;;;;;;5077256;28;20037;-72
2022/04/06 05:24:04;;;;;;;0.20;0.20;;;7.00;1.00;;;;;;5076945;28;20041;-72
2022/04/06 05:26:30;;;;;;;0.00;0.00;;;7.00;1.00;;;;;;5076821;28;20028;-71
2022/04/06 05:28:56;;;;;;;0.08;0.08;;;7.20;1.00;;;;;;5076705;28;20036;-72
2022/04/06 05:31:23;;;;;;;0.10;0.10;;;7.20;1.00;;;;;;5077094;28;20119;-72
2022/04/06 05:33:48;;;;;;;0.05;0.05;;;7.10;1.00;;;;;;5076789;28;20138;-72
2022/04/06 05:36:14;;;;;;;0.47;0.47;;;7.10;1.00;;;;;;5076521;28;20058;-72
2022/04/06 05:38:40;;;;;;;0.03;0.03;;;7.30;1.00;;;;;;5077246;28;20483;-72
2022/04/06 05:41:07;;;;;;;0.35;0.35;;;7.40;1.00;;;;;;5076678;28;20047;-72
2022/04/06 05:43:33;;;;;;;0.00;0.00;;;7.50;1.00;;;;;;5077213;28;20123;-72
2022/04/06 05:45:58;;;;;;;0.45;0.45;;;7.50;1.00;;;;;;5076661;28;20163;-72
2022/04/06 05:48:24;;;;;;;0.10;0.10;;;7.60;1.00;;;;;;5074372;28;20142;-72
2022/04/06 05:50:50;;;;;;;0.10;0.10;;;7.60;1.00;;;;;;5065514;28;20029;-71
2022/04/06 05:53:16;;;;;;;0.20;0.20;;;7.60;1.00;;;;;;5065603;28;20036;-71
2022/04/06 05:55:43;;;;;;;0.10;0.10;;;7.60;1.00;;;;;;5064241;28;20129;-71
2022/04/06 05:58:09;;;;;;;0.10;0.10;;;7.60;1.00;;;;;;5056313;28;20049;-71
2022/04/06 06:00:36;;;;;;;0.20;0.20;;;7.60;1.00;;;;;;5056496;28;20376;-71
2022/04/06 06:03:02;;;;;;;0.10;0.10;;;7.70;1.00;;;;;;5056128;28;20127;-71
2022/04/06 06:05:28;;;;;;;0.20;0.20;;;7.80;1.00;;;;;;5056457;28;20571;-71
2022/04/06 06:07:54;;;;;;;0.30;0.15;;;7.80;1.00;;;;;;5056124;28;20128;-71
2022/04/06 06:10:20;;;;;;;0.10;0.10;;;7.80;1.00;;;;;;5055984;28;20062;-71
2022/04/06 06:12:46;;;;;;;0.10;0.10;;;7.80;1.00;;;;;;5056377;28;20037;-71
2022/04/06 06:15:12;;;;;;;0.75;0.57;;;8.00;1.00;;;;;;5055721;28;20047;-71
2022/04/06 06:17:39;;;;;;;0.65;0.65;;;8.00;1.00;;;;;;5055986;28;20049;-71
2022/04/06 06:20:06;;;;;;;0.10;0.10;;;8.00;1.00;;;;;;5056351;28;20495;-71
2022/04/06 06:22:33;;;;;;;0.10;0.10;;;8.10;1.00;;;;;;5056590;28;20041;-71
2022/04/06 06:24:59;;;;;;;0.40;0.38;;;8.20;1.00;;;;;;5055326;28;20096;-71
2022/04/06 06:27:25;;;;;;;0.10;0.10;;;8.40;1.00;;;;;;5056286;28;20510;-71
2022/04/06 06:29:50;;;;;;;0.10;0.10;;;8.40;1.00;;;;;;5056145;28;20032;-71
2022/04/06 06:32:17;;;;;;;0.00;0.00;;;8.50;1.00;;;;;;5055812;28;20045;-71
2022/04/06 06:34:42;;;;;;;0.10;0.10;;;8.60;1.00;;;;;;5055718;28;20044;-71
2022/04/06 06:37:10;;;;;;;1.15;0.38;;;8.90;1.00;;;;;;5055591;28;20068;-71
2022/04/06 06:39:37;;;;;;;0.13;0.13;;;9.10;1.00;;;;;;5055150;28;20057;-71
2022/04/06 06:42:04;;;;;;;0.52;0.30;;;9.20;1.00;;;;;;5058373;28;20037;-71
2022/04/06 06:44:30;;;;;;;0.10;0.10;;;9.40;1.00;;;;;;5064294;28;20051;-71
2022/04/06 06:46:56;;;;;;;0.20;0.20;;;9.50;1.00;;;;;;5075682;28;20403;-71
2022/04/06 06:49:21;;;;;;;0.10;0.10;;;9.50;1.00;;;;;;5059958;28;20064;-70
2022/04/06 06:51:47;;;;;;;0.30;0.20;;;9.70;1.00;;;;;;5055411;28;20048;-71
2022/04/06 06:54:13;;;;;;;0.20;0.20;;;9.70;1.00;;;;;;5055404;28;20530;-71
2022/04/06 06:56:39;;;;;;;0.28;0.28;;;9.70;1.00;;;;;;5055728;28;20052;-71
2022/04/06 06:59:05;;;;;;;0.20;0.20;;;9.70;1.00;;;;;;5054907;28;20123;-71
2022/04/06 07:01:30;;;;;;;0.30;0.30;;;9.80;1.00;;;;;;5054971;28;20032;-71
2022/04/06 07:03:56;;;;;;;0.22;0.22;;;9.80;1.00;;;;;;5055463;28;20036;-71
2022/04/06 07:06:22;;;;;;;0.28;0.28;;;9.80;1.00;;;;;;5055534;28;20064;-71
2022/04/06 07:08:48;;;;;;;0.30;0.30;;;9.80;1.00;;;;;;5055510;28;20103;-71
2022/04/06 07:11:13;;;;;;;0.45;0.45;;;9.90;1.00;;;;;;5055266;28;20037;-71
2022/04/06 07:13:39;;;;;;;0.10;0.10;;;9.90;1.00;;;;;;5055918;28;20033;-71
2022/04/06 07:16:06;;;;;;;1.35;0.50;;;10.00;1.00;;;;;;5055175;28;20556;-71
2022/04/06 07:18:33;;;;;;;0.25;0.25;;;10.20;1.00;;;;;;5055597;28;20483;-71
2022/04/06 07:21:00;;;;;;;0.10;0.10;;;10.20;1.00;;;;;;5055419;28;20037;-71
2022/04/06 07:23:26;;;;;;;0.25;0.25;;;10.30;1.00;;;;;;5055564;28;20093;-71
2022/04/06 07:25:51;;;;;;;0.75;0.20;;;10.50;1.00;;;;;;5055273;28;20053;-71
2022/04/06 07:28:17;;;;;;;0.45;0.45;;;10.50;1.00;;;;;;5055203;28;20520;-71
2022/04/06 07:30:43;;;;;;;0.32;0.32;;;10.50;1.00;;;;;;5055119;28;20037;-71
2022/04/06 07:33:09;;;;;;;0.50;0.40;;;10.70;1.00;;;;;;5055111;28;20068;-71
2022/04/06 07:35:37;;;;;;;0.00;0.00;;;10.90;1.00;;;;;;5054502;28;20041;-71
2022/04/06 07:38:03;;;;;;;1.20;0.65;;;10.90;1.00;;;;;;5055058;28;20045;-71
2022/04/06 07:40:29;;;;;;;0.45;0.45;;;10.90;1.00;;;;;;5054867;28;20092;-71
2022/04/06 07:42:55;;;;;;;0.28;0.28;;;10.80;1.00;;;;;;5053707;28;20028;-71
2022/04/06 07:45:22;;;;;;;0.10;0.10;;;11.10;1.00;;;;;;5054801;28;20041;-71
2022/04/06 07:47:50;;;;;;;0.10;0.10;;;11.00;1.00;;;;;;5054654;28;20041;-71
2022/04/06 07:50:17;;;;;;;0.20;0.20;;;11.20;1.00;;;;;;5054557;28;20037;-71
2022/04/06 07:52:44;;;;;;;0.30;0.30;;;11.20;1.00;;;;;;5055118;28;20037;-71
2022/04/06 07:55:11;;;;;;;0.50;0.50;;;11.30;1.00;;;;;;5054659;28;20479;-71
2022/04/06 07:57:38;;;;;;;0.30;0.25;;;11.40;1.00;;;;;;5054780;28;20259;-71
2022/04/06 08:00:17;;;;;;;0.28;0.28;;;11.50;1.00;;;;;;5053969;28;20048;-71
2022/04/06 08:02:44;;;;;;;0.38;0.30;;;11.80;1.00;;;;;;5054835;28;20048;-71
2022/04/06 08:05:10;;;;;;;0.20;0.20;;;11.70;1.00;;;;;;5054669;28;20041;-71
2022/04/06 08:07:39;;;;;;;0.10;0.10;;;11.60;1.00;;;;;;5054943;28;20051;-71
2022/04/06 08:10:08;;;;;;;0.20;0.20;;;11.80;1.00;;;;;;5054569;28;20033;-71
2022/04/06 08:12:35;;;;;;;0.10;0.10;;;11.80;1.00;;;;;;5054337;28;20040;-71
2022/04/06 08:15:01;;;;;;;0.20;0.20;;;11.70;1.00;;;;;;5054594;28;20040;-71
2022/04/06 08:17:31;;;;;;;0.73;0.70;;;11.60;1.00;;;;;;5054288;28;20135;-71
2022/04/06 08:19:56;;;;;;;0.15;0.15;;;11.60;1.00;;;;;;5054773;28;20493;-71
2022/04/06 08:22:22;;;;;;;0.20;0.20;;;11.90;1.00;;;;;;5054532;28;20051;-71
2022/04/06 08:24:48;;;;;;;0.28;0.28;;;11.90;1.00;;;;;;5054592;28;20522;-71
2022/04/06 08:27:14;;;;;;;0.30;0.30;;;12.10;1.00;;;;;;5054761;28;20124;-71
2022/04/06 08:29:40;;;;;;;0.60;0.60;;;12.30;1.00;;;;;;5054366;28;20041;-71
2022/04/06 08:32:06;;;;;;;0.10;0.10;;;12.20;1.00;;;;;;5054406;28;20052;-71
2022/04/06 08:34:32;;;;;;;0.15;0.15;;;12.40;1.00;;;;;;5054054;28;20063;-71
2022/04/06 08:36:58;;;;;;;0.30;0.30;;;12.40;1.00;;;;;;5054130;28;20076;-72
2022/04/06 08:39:24;;;;;;;0.20;0.20;;;12.50;1.00;;;;;;5054154;28;20033;-72
2022/04/06 08:41:50;;;;;;;0.90;0.75;;;12.60;1.00;;;;;;5055155;28;20037;-72
2022/04/06 08:44:17;;;;;;;0.68;0.65;;;12.70;1.00;;;;;;5053866;28;20037;-71
2022/04/06 08:46:45;;;;;;;0.30;0.30;;;12.80;1.00;;;;;;5054313;28;20571;-71
2022/04/06 08:49:12;;;;;;;0.95;0.30;;;12.90;1.00;;;;;;5057775;28;20044;-71
2022/04/06 08:51:40;;;;;;;0.10;0.10;;;13.00;1.00;;;;;;5058136;28;20041;-71
2022/04/06 08:54:06;;;;;;;0.20;0.20;;;12.90;1.00;;;;;;5057998;28;20047;-71
2022/04/06 08:56:32;;;;;;;0.40;0.40;;;12.80;1.00;;;;;;5057881;28;20048;-72
2022/04/06 08:59:00;;;;;;;0.98;0.63;;;12.90;1.00;;;;;;5057526;28;20044;-71
2022/04/06 09:01:28;;;;;;;0.10;0.10;;;13.10;1.00;;;;;;5057916;28;20483;-72
2022/04/06 09:03:55;;;;;;;0.20;0.20;;;12.80;1.00;;;;;;5057649;28;20044;-71
2022/04/06 09:06:21;;;;;;;0.10;0.10;;;13.10;1.00;;;;;;5057548;28;20132;-71
2022/04/06 09:08:47;;;;;;;0.60;0.60;;;13.10;1.00;;;;;;5057520;28;20563;-71
2022/04/06 09:11:15;;;;;;;0.55;0.20;;;13.00;1.00;;;;;;5057622;28;20049;-71
2022/04/06 09:13:42;;;;;;;0.10;0.10;;;13.10;1.00;;;;;;5057145;28;20128;-71
2022/04/06 09:16:10;;;;;;;0.28;0.28;;;12.90;1.00;;;;;;5057121;28;20049;-71
2022/04/06 09:18:41;;;;;;;3.33;1.85;;;13.00;1.00;;;;;;5057341;28;20049;-71
2022/04/06 09:21:09;;;;;;;4.57;1.10;;;12.70;1.00;;;;;;5057318;28;20127;-71
2022/04/06 09:23:36;;;;;;;0.85;0.82;;;13.00;1.00;;;;;;5057229;28;20032;-72
2022/04/06 09:26:06;;;;;;;0.43;0.43;;;12.60;1.00;;;;;;5057173;28;20041;-72
2022/04/06 09:28:32;;;;;;;0.38;0.38;;;12.90;1.00;;;;;;5057151;28;20039;-72
2022/04/06 09:30:58;;;;;;;0.50;0.50;;;12.60;1.00;;;;;;5057004;28;20049;-71
2022/04/06 09:33:28;;;;;;;0.88;0.47;;;12.90;1.00;;;;;;5056769;28;20119;-72
2022/04/06 09:35:55;;;;;;;1.63;0.52;;;12.90;1.00;;;;;;5057244;28;20591;-71
2022/04/06 09:38:23;;;;;;;0.20;0.20;;;12.80;1.00;;;;;;5056713;28;20041;-71
2022/04/06 09:40:59;;;;;;;0.75;0.75;;;12.80;1.00;;;;;;5056902;28;20041;-71
2022/04/06 09:43:27;;;;;;;0.20;0.20;;;12.70;1.00;;;;;;5056674;28;20182;-71
2022/04/06 09:48:57;;;;;;;0.15;0.15;;;13.00;1.00;;;;;;5056540;28;20399;-71
2022/04/06 09:51:23;;;;;;;0.10;0.10;;;13.00;1.00;;;;;;5057526;28;20147;-72
2022/04/06 09:53:51;;;;;;;0.70;0.45;;;13.00;1.00;;;;;;5057790;28;20095;-72
2022/04/06 09:56:18;;;;;;;0.57;0.52;;;13.00;1.00;;;;;;5056552;28;20549;-72
2022/04/06 09:58:45;;;;;;;0.30;0.30;;;13.30;1.00;;;;;;5056526;28;20048;-72
2022/04/06 10:01:15;;;;;;;0.20;0.20;;;13.50;1.00;;;;;;5056582;28;20090;-72
2022/04/06 10:03:48;;;;;;;0.15;0.15;;;13.70;1.00;;;;;;5056471;28;20135;-72
2022/04/06 10:06:14;;;;;;;6.78;0.43;;;13.50;1.00;;;;;;5056472;28;20045;-72
2022/04/06 10:08:42;;;;;;;0.30;0.30;;;13.80;1.00;;;;;;5058372;28;20037;-72
2022/04/06 10:11:08;;;;;;;0.30;0.30;;;13.70;1.00;;;;;;5064450;28;20044;-72
2022/04/06 10:13:34;;;;;;;0.40;0.40;;;13.80;1.00;;;;;;5076040;28;20032;-72
2022/04/06 10:16:01;;;;;;;0.30;0.30;;;13.90;1.00;;;;;;5075981;28;20485;-72
2022/04/06 10:18:33;;;;;;;0.60;0.60;;;13.60;1.00;;;;;;5075845;28;20040;-73
2022/04/06 10:21:18;;;;;;;0.43;0.43;;;13.60;1.00;;;;;;5073416;28;20040;-72
2022/04/06 10:23:54;;;;;;;1.55;1.30;;;13.60;1.00;;;;;;5075815;28;20395;-73
2022/04/06 10:26:19;;;;;;;0.30;0.30;;;13.90;1.00;;;;;;5076013;28;20113;-72
2022/04/06 10:28:48;;;;;;;0.15;0.10;;;14.00;1.00;;;;;;5062363;28;20036;-72
2022/04/06 10:31:22;;;;;;;0.20;0.20;;;14.30;1.00;;;;;;5076017;28;20045;-72
2022/04/06 10:34:30;;;;;;;0.30;0.30;;;14.60;1.00;;;;;;5076407;28;20044;-72
2022/04/06 10:37:15;;;;;;;0.47;0.47;;;14.50;1.00;;;;;;5073631;28;20070;-72
2022/04/06 10:39:50;;;;;;;1.25;0.77;;;14.20;1.00;;;;;;5067064;28;20101;-71
2022/04/06 10:42:29;;;;;;;0.10;0.10;;;14.10;1.00;;;;;;5075200;28;20040;-72
2022/04/06 10:44:55;;;;;;;0.35;0.35;;;14.10;1.00;;;;;;5060136;28;20036;-71
2022/04/06 10:47:22;;;;;;;0.20;0.20;;;13.90;1.00;;;;;;5058674;28;20040;-71
2022/04/06 10:50:16;;;;;;;0.60;0.60;;;13.70;1.00;;;;;;5069922;28;20445;-71
2022/04/06 10:52:44;;;;;;;0.17;0.17;;;13.80;1.00;;;;;;5071689;28;20043;-71
2022/04/06 10:55:19;;;;;;;0.20;0.20;;;14.10;1.00;;;;;;5054995;28;20036;-70
2022/04/06 10:58:03;;;;;;;0.28;0.28;;;14.20;1.00;;;;;;5056117;28;20047;-71
2022/04/06 11:00:30;;;;;;;0.20;0.20;;;14.50;1.00;;;;;;5055364;28;20124;-71
2022/04/06 11:03:15;;;;;;;0.73;0.73;;;14.40;1.00;;;;;;5053723;28;20041;-71
2022/04/06 11:05:46;;;;;;;0.20;0.20;;;14.40;1.00;;;;;;5054784;28;20037;-71
2022/04/06 11:11:47;;;;;;;0.20;0.20;;;13.60;1.00;;;;;;5061751;28;20402;-70
2022/04/06 11:14:25;;;;;;;0.40;0.40;;;13.70;1.00;;;;;;5073027;28;20086;-69
2022/04/06 11:16:52;;;;;;;0.30;0.30;;;13.90;1.00;;;;;;5074067;28;20086;-72
2022/04/06 11:19:18;;;;;;;0.43;0.43;;;13.50;1.00;;;;;;5057735;28;20044;-70
2022/04/06 11:21:55;;;;;;;0.30;0.30;;;13.40;1.00;;;;;;5055029;28;20048;-70
2022/04/06 11:24:24;;;;;;;1.33;0.73;;;13.10;1.00;;;;;;5057793;28;20029;-69
2022/04/06 11:26:51;;;;;;;0.35;0.35;;;13.20;1.00;;;;;;5062373;28;20047;-69
2022/04/06 11:29:17;;;;;;;0.10;0.10;;;13.30;1.00;;;;;;5054307;28;20037;-70
2022/04/06 11:32:00;;;;;;;0.38;0.38;;;13.40;1.00;;;;;;5052536;28;20109;-70
2022/04/06 11:34:40;;;;;;;0.43;0.43;;;13.60;1.00;;;;;;5054120;28;20040;-70
2022/04/06 11:37:08;;;;;;;0.10;0.10;;;13.70;1.00;;;;;;5054729;28;20036;-70
2022/04/06 11:39:35;;;;;;;0.85;0.68;;;13.90;1.00;;;;;;5054406;28;20041;-70
2022/04/06 11:42:06;;;;;;;0.20;0.20;;;14.00;1.00;;;;;;5064349;28;20123;-70
2022/04/06 11:44:33;;;;;;;0.47;0.28;;;14.10;1.00;;;;;;5058134;28;20123;-70
2022/04/06 11:46:59;;;;;;;0.10;0.10;;;14.50;1.00;;;;;;5057714;28;20044;-70
2022/04/06 11:49:29;;;;;;;0.45;0.45;;;14.50;1.00;;;;;;5074951;28;20036;-69
2022/04/06 11:51:57;;;;;;;0.10;0.10;;;14.30;1.00;;;;;;5074585;28;20037;-70
2022/04/06 11:54:23;;;;;;;0.20;0.20;;;14.70;1.00;;;;;;5074099;28;20032;-70
2022/04/06 11:56:51;;;;;;;0.25;0.25;;;14.60;1.00;;;;;;5061803;28;20519;-70
2022/04/06 11:59:18;;;;;;;0.20;0.20;;;14.10;1.00;;;;;;5055658;28;20036;-70
2022/04/06 12:01:46;;;;;;;0.10;0.10;;;14.30;1.00;;;;;;5054214;28;20488;-70
2022/04/06 12:04:22;;;;;;;1.23;0.73;;;14.40;1.00;;;;;;5054336;28;20143;-70
2022/04/06 12:06:49;;;;;;;0.20;0.20;;;14.10;1.00;;;;;;5055392;28;20052;-72
2022/04/06 12:09:16;;;;;;;0.20;0.20;;;14.60;1.00;;;;;;5069690;28;20110;-70
2022/04/06 12:11:41;;;;;;;0.10;0.10;;;14.60;1.00;;;;;;5074601;28;20065;-70
2022/04/06 12:14:12;;;;;;;0.20;0.20;;;14.00;1.00;;;;;;5071054;28;20054;-70
2022/04/06 12:16:41;;;;;;;0.45;0.45;;;13.90;1.00;;;;;;5054148;28;20052;-70
2022/04/06 12:19:13;;;;;;;0.85;0.30;;;14.00;1.00;;;;;;5054411;28;20080;-69
2022/04/06 12:21:46;;;;;;;1.55;1.02;;;14.30;1.00;;;;;;5054569;28;20041;-70
2022/04/06 12:24:13;;;;;;;0.15;0.15;;;14.30;1.00;;;;;;5058165;28;20087;-70
2022/04/06 12:26:45;;;;;;;1.10;0.35;;;14.30;1.00;;;;;;5059411;28;20064;-70
2022/04/06 12:29:15;;;;;;;0.30;0.30;;;14.30;1.00;;;;;;5057954;28;20035;-70
2022/04/06 12:31:43;;;;;;;0.10;0.10;;;14.40;1.00;;;;;;5058695;28;20033;-71
2022/04/06 12:34:26;;;;;;;0.10;0.10;;;14.40;1.00;;;;;;5070786;28;20043;-70
2022/04/06 12:36:52;;;;;;;0.50;0.50;;;14.30;1.00;;;;;;5078835;28;20052;-69
2022/04/06 12:39:18;;;;;;;0.10;0.10;;;14.40;1.00;;;;;;5077824;28;20398;-70
2022/04/06 12:42:04;;;;;;;0.20;0.20;;;14.30;1.00;;;;;;5074733;28;20036;-70
2022/04/06 12:44:35;;;;;;;0.60;0.60;;;14.60;1.00;;;;;;5057763;28;20044;-69
2022/04/06 12:47:02;;;;;;;;;;;14.60;1.00;;;;;;5058385;28;20043;-70
2022/04/06 12:49:35;;;;;;;0.13;0.13;;;14.40;1.00;;;;;;5058603;28;20019;-70
2022/04/06 12:52:04;;;;;;;0.95;0.95;;;14.40;1.00;;;;;;5057523;28;20037;-70
2022/04/06 12:54:33;;;;;;;0.68;0.68;;;14.50;1.00;;;;;;5058120;28;20041;-70
2022/04/06 12:57:13;;;;;;;0.40;0.40;;;14.70;1.00;;;;;;5068060;28;20086;-69
2022/04/06 12:59:43;;;;;;;0.20;0.20;;;14.50;1.00;;;;;;5058059;28;20041;-70
2022/04/06 13:02:29;;;;;;;0.70;0.70;;;14.50;1.00;;;;;;5057906;28;20488;-70
2022/04/06 13:05:01;;;;;;;3.30;0.68;;;14.50;1.00;;;;;;5057496;28;20048;-70
2022/04/06 13:07:28;;;;;;;0.40;0.40;;;14.40;1.00;;;;;;5058330;28;20028;-70
2022/04/06 13:09:59;;;;;;;0.20;0.20;;;14.10;1.00;;;;;;5075141;28;20037;-70
2022/04/06 13:12:31;;;;;;;0.80;0.70;;;14.60;1.00;;;;;;5068609;28;20037;-70
2022/04/06 13:14:58;;;;;;;0.30;0.30;;;14.60;1.00;;;;;;5068612;28;20075;-71
2022/04/06 13:17:26;;;;;;;0.43;0.22;;;14.30;1.00;;;;;;5066649;28;20032;-70